Terminal Aerodrome Forecast
Issued by NWS Paducah, KY

Home | Current Version | Previous Version | Text Only | Print | Product List | Glossary On
Versions: 1 2 3 4 5 6 7 8 9 10 11 12 13 14 15 16 17 18 19 20 21 22 23 24 25
000
FTUS43 KPAH 221950 AAA
TAFPAH
TAF AMD
KPAH 221950Z 2220/2318 07011KT 5SM -SHRA BR SCT006 OVC012
      TEMPO 2220/2223 2SM +SHRA BR OVC006
     FM222300 09012G22KT 4SM -SHRA BR OVC008
     FM230600 06015KT 4SM -SHRA BR SCT008 OVC015 WS020/09045KT
     FM231000 08010KT 5SM -SHRA BR OVC008
     FM231500 09006KT P6SM OVC010 PROB30 2315/2318 6SM -SHRA BR
      OVC008=

USA.gov is the U.S. government's official web portal to all federal, state and local government web resources and services.